Weather at Flugplatz Buttwil

Public forecast

Using degrees Celsius for public forecast. Weather courtesy of forecast.io.

Closest aviation weather report (METAR) to Flugplatz Buttwil

Closest report is Emmen Air Base, 10.3 nm (19.2 km) S. Retrieved 2021/07/30 00:20 UTC (28 minutes ago):

LSME 300020Z AUTO 00000KT 9999NDV SCT090 SCT130 17/16 Q1015 RMK

Closest aviation forecast (TAF) to Flugplatz Buttwil

Forecast is more than 6 hours old.

Closest forecast is Emmen Air Base, 10.3 nm (19.2 km) S. Retrieved 2021/07/29 17:00 UTC (8 hours ago):

TAF LSME 291625Z 2917/3023 VRB02KT CAVOK TEMPO 3003/3009 9999 SCT070 PROB30 3003/3008 SHRA SCT060TCU TEMPO 3013/3018 24018G35KT 3000 TSRA BKN040CB PROB40 TEMPO 3014/3016 24022G45KT 2000 +TSRAGR BKN025CB TEMPO 3018/3023 SHRA SCT040TCU PROB40 TEMPO 3018/3023 24015G25KT 4000 TSRA SCT040CB